createdAt,value
2023-02-01T00:03:54.080Z,9.40
2023-02-01T00:07:43.242Z,11.50
2023-02-01T00:11:44.678Z,12.40
2023-02-01T00:15:33.925Z,11.00
2023-02-01T00:19:24.024Z,9.20
2023-02-01T00:38:26.085Z,11.60
2023-02-01T00:42:19.802Z,9.10
2023-02-01T00:45:44.422Z,9.60
2023-02-01T00:49:33.576Z,10.30
2023-02-01T00:53:22.599Z,10.80
2023-02-01T00:57:01.971Z,9.30
2023-02-01T01:00:13.943Z,10.20
2023-02-01T01:03:46.871Z,10.50
2023-02-01T01:06:54.375Z,8.60
2023-02-01T01:10:43.788Z,8.60
2023-02-01T01:14:22.701Z,11.10
2023-02-01T01:18:12.165Z,9.30
2023-02-01T01:22:01.297Z,11.20
2023-02-01T01:25:49.053Z,10.20
2023-02-01T01:29:38.162Z,8.00
2023-02-01T01:33:13.217Z,9.20
2023-02-01T01:36:53.412Z,9.10
2023-02-01T01:40:42.424Z,7.80
2023-02-01T01:44:49.678Z,11.90
2023-02-01T01:48:35.997Z,7.00
2023-02-01T01:56:01.569Z,8.60
2023-02-01T01:59:50.562Z,9.60
2023-02-01T02:03:24.319Z,9.10
2023-02-01T02:07:01.948Z,11.20
2023-02-01T02:10:50.053Z,9.60
2023-02-01T02:14:39.037Z,9.50
2023-02-01T02:18:40.937Z,7.30
2023-02-01T02:22:45.454Z,6.70
2023-02-01T02:35:16.972Z,3.00
2023-02-01T02:39:42.885Z,1.00
2023-02-01T02:43:33.151Z,1.60
2023-02-01T02:47:23.371Z,1.40
2023-02-01T03:11:01.818Z,2.80
2023-02-01T03:14:47.520Z,3.80
2023-02-01T03:18:35.452Z,3.10
2023-02-01T03:22:06.039Z,3.70
2023-02-01T03:25:56.376Z,3.00
2023-02-01T03:29:47.306Z,4.00
2023-02-01T03:33:43.867Z,5.60
2023-02-01T03:45:37.001Z,6.60
2023-02-01T03:49:26.092Z,9.60
2023-02-01T03:53:15.508Z,8.30
2023-02-01T03:57:04.657Z,9.90
2023-02-01T04:12:51.965Z,10.00
2023-02-01T04:16:40.681Z,11.40
2023-02-01T04:20:29.989Z,9.10
2023-02-01T04:28:14.818Z,11.90
2023-02-01T04:48:04.888Z,9.20
2023-02-01T04:51:45.021Z,9.10
2023-02-01T04:55:32.831Z,7.10
2023-02-01T04:59:19.936Z,5.40
2023-02-01T05:03:07.809Z,11.80
2023-02-01T05:07:25.162Z,7.20
2023-02-01T05:11:14.191Z,10.00
2023-02-01T05:15:03.939Z,10.40
2023-02-01T05:18:46.584Z,5.60
2023-02-01T05:26:00.595Z,9.00
2023-02-01T05:37:51.644Z,7.20
2023-02-01T05:41:40.784Z,7.80
2023-02-01T05:45:29.905Z,10.90
2023-02-01T06:00:24.555Z,8.90
2023-02-01T06:04:13.873Z,8.60
2023-02-01T06:07:55.514Z,14.60
2023-02-01T06:11:44.863Z,12.40
2023-02-01T06:15:33.845Z,11.90
2023-02-01T06:19:24.982Z,10.50
2023-02-01T06:23:13.821Z,9.40
2023-02-01T06:50:10.242Z,11.40
2023-02-01T06:53:59.183Z,13.60
2023-02-01T06:57:48.293Z,14.30
2023-02-01T07:01:37.503Z,14.60
2023-02-01T07:05:26.786Z,8.40
2023-02-01T07:09:16.057Z,10.10
2023-02-01T07:13:05.481Z,11.30
2023-02-01T07:16:55.220Z,9.00
2023-02-01T07:32:34.877Z,14.00
2023-02-01T07:36:24.259Z,10.80
2023-02-01T07:40:06.827Z,11.30
2023-02-01T07:43:56.593Z,9.20
2023-02-01T07:47:45.648Z,11.60
2023-02-01T07:51:43.927Z,9.20
2023-02-01T07:55:32.931Z,16.90
2023-02-01T07:59:19.024Z,23.40
2023-02-01T08:02:58.881Z,20.00
2023-02-01T08:26:13.939Z,13.50
2023-02-01T08:30:03.514Z,18.50
2023-02-01T08:33:52.600Z,16.30
2023-02-01T08:37:41.930Z,14.80
2023-02-01T08:41:24.808Z,14.70
2023-02-01T08:45:13.016Z,12.50
2023-02-01T08:49:15.786Z,14.00
2023-02-01T08:53:09.744Z,14.90
2023-02-01T09:00:29.156Z,14.20
2023-02-01T09:04:24.200Z,13.40
2023-02-01T09:08:13.939Z,13.90
2023-02-01T09:12:04.545Z,11.20
2023-02-01T09:24:28.039Z,7.40
2023-02-01T09:28:18.987Z,14.40
2023-02-01T09:32:07.117Z,8.70
2023-02-01T09:35:56.244Z,11.90
2023-02-01T09:39:49.633Z,13.90
2023-02-01T09:44:06.393Z,14.00
2023-02-01T09:48:07.609Z,12.30
2023-02-01T09:51:49.833Z,13.90
2023-02-01T10:07:39.126Z,19.00
2023-02-01T10:11:33.198Z,13.10
2023-02-01T10:15:36.425Z,12.80
2023-02-01T10:27:13.402Z,12.70
2023-02-01T10:31:02.852Z,13.40
2023-02-01T10:35:04.318Z,12.20
2023-02-01T10:38:59.079Z,14.40
2023-02-01T10:58:25.479Z,11.40
2023-02-01T11:02:03.319Z,14.10
2023-02-01T11:05:52.435Z,15.30
2023-02-01T11:09:30.864Z,16.00
2023-02-01T11:29:06.734Z,15.00
2023-02-01T11:32:27.555Z,10.10
2023-02-01T11:36:04.336Z,8.30
2023-02-01T11:40:03.737Z,9.20
2023-02-01T11:44:00.270Z,13.90
2023-02-01T11:59:40.831Z,11.60
2023-02-01T12:03:47.169Z,11.80
2023-02-01T12:07:49.466Z,12.70
2023-02-01T12:20:07.384Z,9.60
2023-02-01T12:23:55.081Z,12.80
2023-02-01T12:27:42.356Z,13.60
2023-02-01T12:31:48.410Z,16.30
2023-02-01T12:50:55.327Z,17.10
2023-02-01T12:54:52.410Z,15.10
2023-02-01T12:58:56.628Z,11.70
2023-02-01T13:02:46.596Z,25.10
2023-02-01T13:06:35.036Z,30.70
2023-02-01T13:18:38.323Z,16.10
2023-02-01T13:22:35.040Z,11.30
2023-02-01T13:26:28.221Z,11.20
2023-02-01T13:38:35.691Z,20.50
2023-02-01T13:42:34.166Z,8.90
2023-02-01T13:46:32.366Z,9.50
2023-02-01T13:58:25.828Z,11.70
2023-02-01T14:02:20.582Z,10.70
2023-02-01T14:06:12.957Z,11.30
2023-02-01T14:10:34.320Z,13.00
2023-02-01T14:14:24.673Z,16.40
2023-02-01T14:22:33.413Z,10.10
2023-02-01T14:26:22.832Z,15.60
2023-02-01T14:30:18.719Z,14.40
2023-02-01T14:42:26.123Z,15.60
2023-02-01T14:46:20.396Z,13.80
2023-02-01T14:50:12.272Z,16.70
2023-02-01T15:01:57.335Z,19.60
2023-02-01T15:05:46.451Z,26.50
2023-02-01T15:09:39.317Z,18.90
2023-02-01T15:29:02.372Z,18.20
2023-02-01T15:32:51.721Z,21.60
2023-02-01T15:37:00.668Z,26.70
2023-02-01T15:40:53.385Z,20.90
2023-02-01T15:48:19.910Z,18.20
2023-02-01T15:51:51.720Z,15.10
2023-02-01T15:55:39.858Z,16.20
2023-02-01T15:59:09.788Z,17.00
2023-02-01T16:03:05.220Z,11.80
2023-02-01T16:29:13.716Z,10.00
2023-02-01T16:33:02.985Z,15.50
2023-02-01T16:36:41.692Z,19.90
2023-02-01T16:40:13.903Z,18.50
2023-02-01T16:44:02.980Z,24.50
2023-02-01T16:47:52.234Z,20.00
2023-02-01T16:51:41.262Z,18.50
2023-02-01T16:55:30.087Z,14.20
2023-02-01T16:59:19.263Z,13.70
2023-02-01T17:02:51.236Z,11.60
2023-02-01T17:06:26.123Z,17.70
2023-02-01T17:10:08.650Z,19.40
2023-02-01T17:13:57.714Z,18.20
2023-02-01T17:17:45.516Z,22.50
2023-02-01T17:21:34.627Z,19.30
2023-02-01T17:25:24.162Z,20.00
2023-02-01T17:29:05.580Z,18.70
2023-02-01T17:33:10.203Z,14.50
2023-02-01T17:37:06.779Z,15.80
2023-02-01T17:40:17.115Z,15.30
2023-02-01T18:06:34.412Z,18.90
2023-02-01T18:10:12.280Z,17.90
2023-02-01T18:13:54.512Z,18.20
2023-02-01T18:17:36.054Z,23.30
2023-02-01T18:21:25.245Z,21.30
2023-02-01T18:25:14.688Z,17.30
2023-02-01T18:29:03.060Z,15.20
2023-02-01T18:32:53.201Z,14.30
2023-02-01T18:36:42.482Z,16.90
2023-02-01T18:40:32.465Z,14.70
2023-02-01T18:44:05.157Z,23.90
2023-02-01T18:47:29.916Z,16.00
2023-02-01T18:51:19.817Z,15.50
2023-02-01T18:55:09.911Z,22.90
2023-02-01T18:59:01.902Z,20.00
2023-02-01T19:02:51.227Z,19.70
2023-02-01T19:06:40.326Z,15.60
2023-02-01T19:10:29.959Z,22.40
2023-02-01T19:14:11.955Z,18.40
2023-02-01T19:18:01.117Z,15.20
2023-02-01T19:21:50.350Z,20.40
2023-02-01T19:25:39.798Z,17.90
2023-02-01T19:45:05.824Z,14.00
2023-02-01T19:48:54.684Z,13.50
2023-02-01T19:52:43.752Z,18.60
2023-02-01T19:56:32.739Z,11.80
2023-02-01T20:00:20.917Z,16.00
2023-02-01T20:04:10.374Z,15.60
2023-02-01T20:07:42.506Z,14.40
2023-02-01T20:11:30.655Z,16.20
2023-02-01T20:15:20.347Z,13.10
2023-02-01T20:19:09.761Z,12.90
2023-02-01T20:22:41.566Z,15.50
2023-02-01T20:26:31.552Z,11.40
2023-02-01T20:30:21.098Z,13.50
2023-02-01T20:34:10.172Z,17.50
2023-02-01T20:37:36.832Z,14.20
2023-02-01T20:41:26.160Z,14.10
2023-02-01T20:45:06.115Z,13.50
2023-02-01T21:39:51.343Z,14.90
2023-02-01T21:43:40.616Z,11.70
2023-02-01T21:47:29.686Z,14.30
2023-02-01T21:51:18.852Z,13.70
2023-02-01T21:55:07.960Z,12.40
2023-02-01T21:58:57.003Z,11.20
2023-02-01T22:01:54.984Z,11.90
2023-02-01T22:05:44.074Z,13.10
2023-02-01T22:09:34.969Z,10.10
2023-02-01T22:13:25.000Z,15.80
2023-02-01T22:17:14.173Z,12.30
2023-02-01T22:21:04.563Z,9.70
2023-02-01T22:28:51.498Z,12.60
2023-02-01T22:32:40.532Z,10.30
2023-02-01T22:36:28.853Z,12.30
2023-02-01T22:40:07.758Z,13.10
2023-02-01T22:43:47.496Z,9.50
2023-02-01T22:47:39.512Z,15.30
2023-02-01T22:51:21.093Z,12.70
2023-02-01T22:55:10.906Z,15.50
2023-02-01T22:59:01.220Z,12.30
2023-02-01T23:06:30.035Z,11.50
2023-02-01T23:10:02.315Z,12.20
2023-02-01T23:14:10.717Z,12.00
2023-02-01T23:17:59.663Z,8.00
2023-02-01T23:21:36.843Z,8.20
2023-02-01T23:25:18.561Z,9.20
2023-02-01T23:29:07.543Z,7.90
2023-02-01T23:32:56.583Z,5.60
2023-02-01T23:36:46.154Z,6.70
2023-02-01T23:40:35.485Z,6.80
2023-02-01T23:44:24.999Z,8.30
2023-02-01T23:48:13.971Z,5.70
2023-02-01T23:52:31.319Z,8.40
2023-02-01T23:56:20.295Z,7.10
